createdAt,value
2023-02-25T00:00:01.054Z,13.47
2023-02-25T00:02:27.697Z,14.60
2023-02-25T00:04:54.259Z,16.10
2023-02-25T00:07:22.783Z,12.13
2023-02-25T00:09:49.325Z,13.10
2023-02-25T00:12:15.951Z,12.70
2023-02-25T00:14:42.573Z,15.73
2023-02-25T00:17:09.299Z,12.27
2023-02-25T00:19:35.911Z,12.77
2023-02-25T00:22:02.455Z,17.10
2023-02-25T00:24:29.086Z,16.23
2023-02-25T00:26:55.681Z,14.77
2023-02-25T00:29:22.257Z,14.30
2023-02-25T00:31:49.044Z,15.43
2023-02-25T00:34:15.850Z,16.20
2023-02-25T00:36:42.564Z,13.77
2023-02-25T00:39:09.355Z,18.67
2023-02-25T00:41:36.092Z,13.07
2023-02-25T00:44:03.608Z,13.70
2023-02-25T00:46:31.232Z,14.47
2023-02-25T00:48:59.063Z,17.67
2023-02-25T00:51:30.888Z,14.32
2023-02-25T00:53:57.677Z,12.50
2023-02-25T00:56:25.568Z,14.57
2023-02-25T00:58:53.132Z,14.03
2023-02-25T01:01:21.060Z,15.83
2023-02-25T01:03:48.461Z,10.57
2023-02-25T01:06:15.445Z,13.17
2023-02-25T01:08:42.444Z,15.50
2023-02-25T01:11:21.467Z,10.70
2023-02-25T01:13:49.058Z,12.37
2023-02-25T01:16:18.871Z,13.67
2023-02-25T01:18:46.557Z,14.50
2023-02-25T01:21:26.013Z,15.73
2023-02-25T01:23:59.947Z,12.70
2023-02-25T01:26:28.314Z,13.43
2023-02-25T01:28:55.935Z,12.23
2023-02-25T01:31:25.080Z,15.80
2023-02-25T01:33:52.041Z,16.57
2023-02-25T01:36:18.596Z,14.40
2023-02-25T01:38:45.265Z,13.23
2023-02-25T01:41:11.877Z,12.93
2023-02-25T01:43:38.490Z,14.17
2023-02-25T01:46:05.102Z,12.83
2023-02-25T01:48:33.168Z,15.87
2023-02-25T01:51:07.311Z,14.47
2023-02-25T01:53:37.778Z,13.70
2023-02-25T01:56:05.035Z,16.10
2023-02-25T01:58:32.790Z,14.17
2023-02-25T02:00:59.515Z,10.87
2023-02-25T02:03:32.504Z,11.23
2023-02-25T02:06:11.935Z,11.83
2023-02-25T02:08:38.671Z,13.53
2023-02-25T02:11:06.309Z,11.33
2023-02-25T02:13:34.597Z,15.60
2023-02-25T02:16:13.344Z,13.43
2023-02-25T02:18:42.101Z,13.73
2023-02-25T02:21:22.509Z,12.90
2023-02-25T02:24:10.104Z,10.20
2023-02-25T02:26:48.965Z,11.10
2023-02-25T02:29:33.826Z,14.20
2023-02-25T02:32:03.595Z,12.67
2023-02-25T02:34:44.881Z,14.80
2023-02-25T02:37:31.380Z,12.47
2023-02-25T02:40:14.736Z,13.93
2023-02-25T02:43:01.588Z,11.23
2023-02-25T02:45:35.276Z,12.40
2023-02-25T02:48:28.918Z,11.23
2023-02-25T02:50:59.096Z,12.63
2023-02-25T02:53:31.408Z,11.67
2023-02-25T02:56:00.478Z,13.07
2023-02-25T02:58:30.195Z,13.87
2023-02-25T03:01:08.297Z,14.33
2023-02-25T03:03:47.498Z,13.07
2023-02-25T03:06:24.858Z,11.60
2023-02-25T03:09:04.925Z,14.87
2023-02-25T03:11:31.533Z,13.13
2023-02-25T03:13:58.166Z,14.80
2023-02-25T03:16:46.539Z,15.33
2023-02-25T03:19:19.176Z,16.77
2023-02-25T03:21:54.793Z,12.67
2023-02-25T03:24:29.471Z,13.87
2023-02-25T03:26:56.099Z,13.14
2023-02-25T03:29:24.618Z,12.17
2023-02-25T03:31:51.594Z,12.73
2023-02-25T03:34:21.744Z,14.20
2023-02-25T03:36:53.751Z,11.97
2023-02-25T03:39:28.202Z,14.73
2023-02-25T03:41:56.523Z,12.47
2023-02-25T03:44:30.034Z,12.50
2023-02-25T03:46:57.632Z,11.77
2023-02-25T03:50:10.741Z,11.70
2023-02-25T03:52:40.168Z,13.57
2023-02-25T03:55:09.704Z,10.87
2023-02-25T03:57:41.590Z,13.67
2023-02-25T04:00:30.655Z,12.63
2023-02-25T04:02:57.372Z,16.33
2023-02-25T04:05:27.837Z,15.20
2023-02-25T04:07:59.192Z,15.17
2023-02-25T04:10:26.037Z,10.57
2023-02-25T04:12:52.638Z,14.57
2023-02-25T04:15:19.953Z,14.73
2023-02-25T04:17:50.778Z,16.02
2023-02-25T04:20:17.586Z,11.10
2023-02-25T04:22:44.366Z,15.27
2023-02-25T04:25:11.029Z,13.53
2023-02-25T04:27:37.645Z,12.53
2023-02-25T04:30:05.462Z,13.37
2023-02-25T04:32:32.240Z,14.27
2023-02-25T04:35:03.242Z,8.47
2023-02-25T04:37:30.574Z,13.97
2023-02-25T04:39:57.404Z,12.17
2023-02-25T04:42:24.176Z,14.17
2023-02-25T04:44:50.842Z,11.33
2023-02-25T04:47:19.161Z,10.77
2023-02-25T04:49:45.922Z,15.60
2023-02-25T04:52:16.161Z,14.50
2023-02-25T04:54:42.841Z,10.97
2023-02-25T04:57:11.445Z,14.30
2023-02-25T04:59:38.616Z,12.60
2023-02-25T05:02:06.159Z,17.47
2023-02-25T05:04:33.490Z,14.17
2023-02-25T05:07:00.680Z,15.53
2023-02-25T05:09:27.357Z,12.87
2023-02-25T05:11:53.957Z,13.60
2023-02-25T05:14:20.570Z,13.60
2023-02-25T05:16:47.331Z,11.83
2023-02-25T05:19:22.559Z,14.17
2023-02-25T05:21:50.303Z,14.97
2023-02-25T05:24:16.960Z,15.87
2023-02-25T05:26:43.563Z,12.17
2023-02-25T05:29:10.435Z,14.00
2023-02-25T05:31:37.138Z,12.13
2023-02-25T05:34:03.860Z,14.23
2023-02-25T05:36:30.837Z,15.30
2023-02-25T05:39:02.926Z,18.10
2023-02-25T05:41:30.348Z,12.10
2023-02-25T05:43:58.269Z,16.33
2023-02-25T05:46:25.702Z,10.83
2023-02-25T05:48:52.840Z,11.53
2023-02-25T05:51:22.761Z,13.53
2023-02-25T05:53:50.810Z,10.13
2023-02-25T05:56:19.812Z,15.03
2023-02-25T05:58:49.781Z,13.10
2023-02-25T06:01:19.323Z,14.73
2023-02-25T06:03:47.357Z,14.63
2023-02-25T06:06:15.884Z,11.17
2023-02-25T06:08:45.793Z,14.13
2023-02-25T06:11:18.172Z,12.80
2023-02-25T06:13:44.785Z,16.17
2023-02-25T06:16:11.411Z,13.97
2023-02-25T06:18:38.060Z,12.27
2023-02-25T06:21:06.477Z,14.93
2023-02-25T06:23:37.213Z,15.03
2023-02-25T06:26:05.098Z,17.63
2023-02-25T06:28:31.948Z,15.63
2023-02-25T06:30:58.547Z,17.07
2023-02-25T06:33:25.218Z,12.67
2023-02-25T06:35:55.682Z,12.90
2023-02-25T06:38:22.527Z,12.00
2023-02-25T06:40:49.686Z,12.97
2023-02-25T06:43:17.075Z,14.27
2023-02-25T06:45:43.992Z,17.97
2023-02-25T06:48:10.905Z,15.07
2023-02-25T06:50:40.498Z,12.93
2023-02-25T06:53:07.700Z,14.50
2023-02-25T06:55:34.727Z,16.07
2023-02-25T06:58:01.371Z,12.77
2023-02-25T07:00:28.066Z,17.47
2023-02-25T07:02:54.641Z,17.97
2023-02-25T07:05:21.384Z,16.10
2023-02-25T07:07:47.973Z,15.00
2023-02-25T07:10:14.610Z,11.70
2023-02-25T07:12:41.196Z,18.70
2023-02-25T07:15:08.600Z,16.43
2023-02-25T07:17:35.177Z,15.80
2023-02-25T07:20:01.754Z,13.97
2023-02-25T07:22:28.363Z,14.77
2023-02-25T07:24:54.991Z,21.60
2023-02-25T07:27:21.652Z,13.30
2023-02-25T07:29:48.242Z,11.80
2023-02-25T07:32:14.945Z,13.77
2023-02-25T07:34:41.703Z,14.10
2023-02-25T07:37:08.262Z,16.00
2023-02-25T07:39:34.912Z,19.47
2023-02-25T07:42:01.556Z,21.17
2023-02-25T07:44:28.171Z,13.27
2023-02-25T07:46:54.796Z,13.53
2023-02-25T07:49:21.391Z,16.07
2023-02-25T07:51:48.065Z,20.23
2023-02-25T07:54:15.915Z,12.37
2023-02-25T07:56:42.511Z,18.83
2023-02-25T07:59:09.079Z,13.50
2023-02-25T08:01:37.575Z,11.70
2023-02-25T08:04:06.478Z,14.97
2023-02-25T08:06:38.076Z,14.43
2023-02-25T08:09:06.279Z,16.33
2023-02-25T08:11:33.685Z,16.87
2023-02-25T08:14:01.733Z,19.87
2023-02-25T08:16:28.596Z,14.83
2023-02-25T08:18:55.211Z,20.77
2023-02-25T08:21:23.953Z,17.27
2023-02-25T08:23:52.488Z,16.57
2023-02-25T08:26:22.441Z,18.70
2023-02-25T08:28:50.280Z,17.93
2023-02-25T08:31:18.052Z,16.87
2023-02-25T08:33:49.772Z,19.53
2023-02-25T08:36:22.185Z,22.43
2023-02-25T08:38:50.236Z,20.70
2023-02-25T08:41:18.402Z,14.67
2023-02-25T08:43:48.923Z,12.20
2023-02-25T08:46:15.581Z,17.60
2023-02-25T08:48:42.211Z,15.20
2023-02-25T08:51:10.602Z,21.83
2023-02-25T08:53:39.103Z,18.07
2023-02-25T08:56:07.093Z,15.97
2023-02-25T08:58:34.102Z,14.90
2023-02-25T09:01:00.830Z,18.57
2023-02-25T09:03:27.588Z,17.07
2023-02-25T09:05:56.103Z,18.03
2023-02-25T09:08:23.039Z,16.70
2023-02-25T09:10:50.966Z,17.07
2023-02-25T09:13:17.923Z,18.80
2023-02-25T09:15:44.501Z,17.63
2023-02-25T09:18:11.907Z,22.17
2023-02-25T09:20:50.084Z,14.67
2023-02-25T09:23:17.107Z,16.77
2023-02-25T09:25:46.510Z,17.67
2023-02-25T09:28:13.255Z,19.77
2023-02-25T09:30:39.922Z,17.90
2023-02-25T09:33:07.008Z,22.43
2023-02-25T09:35:33.670Z,20.20
2023-02-25T09:38:00.298Z,21.23
2023-02-25T09:40:26.967Z,22.17
2023-02-25T09:43:21.587Z,16.47
2023-02-25T09:45:50.597Z,22.60
2023-02-25T09:48:26.223Z,18.87
2023-02-25T09:50:57.154Z,17.50
2023-02-25T09:53:47.840Z,21.53
2023-02-25T09:56:15.648Z,25.10
2023-02-25T09:58:51.043Z,14.00
2023-02-25T10:01:40.533Z,16.83
2023-02-25T10:04:37.847Z,18.77
2023-02-25T10:07:20.955Z,24.10
2023-02-25T10:10:05.611Z,21.53
2023-02-25T10:12:37.795Z,17.17
2023-02-25T10:15:20.063Z,17.27
2023-02-25T10:18:40.551Z,20.40
2023-02-25T10:21:30.215Z,17.67
2023-02-25T10:24:09.587Z,21.97
2023-02-25T10:26:49.254Z,20.07
2023-02-25T10:29:32.828Z,16.97
2023-02-25T10:32:00.962Z,19.77
2023-02-25T10:34:30.389Z,18.93
2023-02-25T10:36:58.991Z,21.70
2023-02-25T10:39:27.703Z,19.63
2023-02-25T10:41:54.684Z,21.23
2023-02-25T10:44:21.534Z,15.77
2023-02-25T10:47:02.954Z,15.90
2023-02-25T10:49:30.540Z,15.07
2023-02-25T10:52:06.008Z,16.55
2023-02-25T10:54:34.989Z,15.07
2023-02-25T10:57:08.512Z,17.37
2023-02-25T10:59:38.556Z,17.77
2023-02-25T11:02:25.984Z,18.00
2023-02-25T11:04:53.718Z,15.53
2023-02-25T11:07:43.715Z,20.13
2023-02-25T11:10:16.203Z,15.57
2023-02-25T11:12:53.146Z,16.57
2023-02-25T11:15:45.997Z,20.40
2023-02-25T11:18:23.526Z,16.47
2023-02-25T11:21:08.577Z,21.95
2023-02-25T11:23:48.836Z,17.17
2023-02-25T11:26:28.132Z,11.97
2023-02-25T11:28:55.437Z,15.07
2023-02-25T11:31:24.297Z,19.97
2023-02-25T11:34:24.489Z,15.80
2023-02-25T11:36:52.662Z,17.57
2023-02-25T11:39:23.517Z,16.00
2023-02-25T11:41:53.006Z,18.67
2023-02-25T11:44:28.838Z,17.77
2023-02-25T11:47:04.313Z,14.23
2023-02-25T11:49:46.629Z,17.80
2023-02-25T11:52:19.415Z,16.00
2023-02-25T11:55:18.150Z,17.93
2023-02-25T11:58:03.613Z,17.43
2023-02-25T12:00:51.963Z,16.27
2023-02-25T12:03:56.041Z,20.73
2023-02-25T12:06:28.670Z,22.77
2023-02-25T12:09:24.499Z,13.73
2023-02-25T12:12:22.572Z,17.57
2023-02-25T12:15:27.066Z,15.33
2023-02-25T12:18:38.623Z,22.13
2023-02-25T12:21:29.631Z,13.37
2023-02-25T12:24:14.595Z,17.37
2023-02-25T12:27:05.481Z,16.57
2023-02-25T12:30:05.826Z,13.90
2023-02-25T12:32:57.117Z,16.67
2023-02-25T12:35:35.618Z,11.57
2023-02-25T12:38:25.560Z,20.00
2023-02-25T12:41:13.851Z,12.27
2023-02-25T12:44:16.057Z,13.23
2023-02-25T12:47:04.463Z,13.93
2023-02-25T12:49:45.852Z,10.47
2023-02-25T12:52:18.054Z,10.70
2023-02-25T12:55:09.469Z,12.67
2023-02-25T12:57:56.156Z,16.33
2023-02-25T13:00:55.849Z,14.87
2023-02-25T13:03:49.746Z,20.37
2023-02-25T13:06:55.026Z,14.60
2023-02-25T13:09:29.398Z,20.87
2023-02-25T13:12:11.456Z,19.60
2023-02-25T13:14:54.958Z,14.37
2023-02-25T13:17:34.515Z,19.60
2023-02-25T13:20:22.972Z,21.70
2023-02-25T13:23:18.118Z,18.50
2023-02-25T13:26:06.973Z,16.67
2023-02-25T13:28:58.624Z,17.33
2023-02-25T13:31:51.888Z,19.60
2023-02-25T13:34:46.314Z,16.67
2023-02-25T13:37:37.933Z,18.23
2023-02-25T13:40:05.484Z,14.87
2023-02-25T13:42:53.961Z,17.10
2023-02-25T13:45:32.756Z,17.17
2023-02-25T13:48:08.510Z,16.43
2023-02-25T13:51:04.435Z,17.37
2023-02-25T13:53:34.972Z,17.67
2023-02-25T13:56:25.235Z,21.17
2023-02-25T13:59:18.614Z,14.30
2023-02-25T14:01:53.586Z,18.73
2023-02-25T14:05:04.759Z,13.83
2023-02-25T14:07:50.170Z,20.43
2023-02-25T14:10:41.095Z,20.47
2023-02-25T14:13:27.261Z,17.57
2023-02-25T14:16:15.418Z,19.33
2023-02-25T14:18:48.293Z,12.60
2023-02-25T14:21:40.455Z,19.03
2023-02-25T14:24:22.077Z,20.73
2023-02-25T14:27:11.595Z,15.10
2023-02-25T14:30:11.124Z,15.90
2023-02-25T14:32:48.631Z,20.07
2023-02-25T14:35:24.240Z,18.77
2023-02-25T14:38:09.749Z,14.43
2023-02-25T14:41:13.374Z,15.50
2023-02-25T14:43:40.316Z,18.60
2023-02-25T14:46:13.961Z,16.40
2023-02-25T14:48:55.194Z,20.67
2023-02-25T14:51:22.175Z,28.37
2023-02-25T14:54:03.955Z,18.57
2023-02-25T14:56:57.013Z,15.63
2023-02-25T14:59:43.778Z,17.90
2023-02-25T15:02:20.363Z,19.37
2023-02-25T15:05:12.734Z,14.17
2023-02-25T15:08:18.926Z,22.57
2023-02-25T15:11:04.123Z,22.43
2023-02-25T15:13:45.601Z,14.83
2023-02-25T15:16:15.030Z,20.73
2023-02-25T15:18:44.603Z,17.60
2023-02-25T15:21:37.356Z,19.43
2023-02-25T15:24:06.382Z,18.73
2023-02-25T15:26:49.288Z,18.40
2023-02-25T15:29:33.976Z,18.70
2023-02-25T15:32:54.760Z,24.40
2023-02-25T15:35:41.329Z,26.70
2023-02-25T15:38:20.484Z,21.80
2023-02-25T15:40:52.448Z,26.67
2023-02-25T15:43:18.989Z,25.70
2023-02-25T15:45:45.993Z,23.00
2023-02-25T15:48:19.117Z,23.70
2023-02-25T15:50:46.469Z,26.73
2023-02-25T15:53:21.092Z,24.93
2023-02-25T15:55:50.347Z,21.97
2023-02-25T15:58:23.342Z,25.23
2023-02-25T16:00:54.273Z,19.27
2023-02-25T16:03:36.137Z,21.93
2023-02-25T16:06:14.558Z,24.47
2023-02-25T16:08:50.077Z,17.17
2023-02-25T16:11:25.414Z,40.67
2023-02-25T16:13:53.374Z,33.97
2023-02-25T16:16:20.951Z,44.50
2023-02-25T16:18:50.652Z,30.27
2023-02-25T16:21:27.110Z,105.20
2023-02-25T16:23:54.540Z,64.90
2023-02-25T16:26:21.091Z,72.60
2023-02-25T16:29:00.877Z,85.70
2023-02-25T16:31:49.735Z,206.03
2023-02-25T16:34:41.604Z,266.43
2023-02-25T16:37:27.608Z,57.10
2023-02-25T16:39:54.322Z,33.27
2023-02-25T16:42:21.465Z,30.13
2023-02-25T16:44:57.918Z,56.03
2023-02-25T16:47:30.069Z,43.47
2023-02-25T16:49:58.906Z,32.10
2023-02-25T16:52:34.629Z,30.23
2023-02-25T16:55:05.452Z,23.17
2023-02-25T16:57:36.469Z,62.67
2023-02-25T17:00:19.650Z,129.47
2023-02-25T17:02:49.491Z,43.27
2023-02-25T17:05:24.315Z,45.27
2023-02-25T17:07:56.065Z,57.20
2023-02-25T17:10:28.606Z,68.57
2023-02-25T17:12:55.274Z,59.07
2023-02-25T17:15:26.521Z,76.67
2023-02-25T17:18:19.737Z,25.33
2023-02-25T17:20:46.477Z,25.87
2023-02-25T17:23:14.537Z,22.47
2023-02-25T17:25:48.758Z,21.30
2023-02-25T17:28:27.394Z,31.47
2023-02-25T17:31:05.635Z,20.73
2023-02-25T17:33:34.630Z,23.43
2023-02-25T17:36:14.068Z,29.90
2023-02-25T17:38:42.871Z,23.63
2023-02-25T17:41:15.971Z,26.17
2023-02-25T17:43:42.807Z,22.53
2023-02-25T17:46:31.536Z,23.67
2023-02-25T17:49:00.420Z,19.03
2023-02-25T17:51:34.937Z,24.47
2023-02-25T17:54:12.099Z,21.33
2023-02-25T17:56:39.082Z,23.07
2023-02-25T17:59:07.011Z,23.83
2023-02-25T18:01:55.607Z,24.43
2023-02-25T18:04:24.538Z,19.03
2023-02-25T18:06:52.553Z,38.10
2023-02-25T18:09:38.518Z,21.87
2023-02-25T18:12:07.974Z,17.07
2023-02-25T18:14:39.769Z,21.23
2023-02-25T18:17:29.332Z,19.03
2023-02-25T18:20:01.130Z,22.73
2023-02-25T18:22:35.045Z,39.00
2023-02-25T18:25:05.766Z,36.20
2023-02-25T18:27:37.475Z,30.57
2023-02-25T18:30:20.577Z,26.47
2023-02-25T18:32:47.599Z,19.93
2023-02-25T18:35:15.196Z,23.50
2023-02-25T18:37:42.763Z,27.30
2023-02-25T18:40:36.882Z,23.77
2023-02-25T18:43:04.156Z,25.40
2023-02-25T18:45:32.341Z,20.90
2023-02-25T18:48:00.460Z,25.77
2023-02-25T18:50:32.775Z,24.67
2023-02-25T18:53:00.417Z,24.43
2023-02-25T18:55:31.893Z,27.03
2023-02-25T18:57:58.909Z,21.33
2023-02-25T19:00:29.951Z,22.67
2023-02-25T19:03:04.653Z,21.33
2023-02-25T19:05:31.399Z,25.13
2023-02-25T19:07:58.070Z,25.13
2023-02-25T19:10:27.841Z,27.90
2023-02-25T19:13:05.615Z,22.97
2023-02-25T19:15:35.726Z,20.90
2023-02-25T19:18:02.358Z,22.97
2023-02-25T19:20:28.948Z,22.07
2023-02-25T19:22:56.832Z,23.20
2023-02-25T19:25:25.991Z,19.17
2023-02-25T19:27:53.944Z,19.63
2023-02-25T19:30:25.029Z,22.33
2023-02-25T19:32:51.935Z,18.33
2023-02-25T19:35:18.929Z,22.00
2023-02-25T19:37:45.617Z,21.08
2023-02-25T19:40:16.945Z,17.95
2023-02-25T19:42:44.724Z,17.93
2023-02-25T19:45:15.257Z,29.67
2023-02-25T19:47:42.068Z,20.25
2023-02-25T19:50:09.592Z,20.20
2023-02-25T19:52:36.409Z,23.90
2023-02-25T19:55:04.937Z,15.30
2023-02-25T19:57:31.811Z,20.58
2023-02-25T19:59:58.654Z,21.90
2023-02-25T20:02:25.874Z,21.43
2023-02-25T20:04:52.492Z,21.03
2023-02-25T20:07:19.103Z,19.93
2023-02-25T20:09:46.078Z,15.30
2023-02-25T20:12:12.680Z,18.20
2023-02-25T20:14:39.320Z,18.77
2023-02-25T20:17:05.958Z,16.47
2023-02-25T20:19:33.026Z,17.23
2023-02-25T20:22:01.288Z,21.90
2023-02-25T20:24:28.804Z,17.60
2023-02-25T20:26:56.215Z,18.30
2023-02-25T20:29:23.155Z,16.10
2023-02-25T20:31:49.869Z,17.20
2023-02-25T20:34:19.584Z,15.07
2023-02-25T20:36:49.299Z,21.23
2023-02-25T20:39:22.024Z,14.40
2023-02-25T20:41:48.948Z,15.70
2023-02-25T20:44:16.752Z,16.63
2023-02-25T20:46:43.816Z,18.53
2023-02-25T20:49:14.671Z,17.60
2023-02-25T20:51:46.031Z,20.93
2023-02-25T20:54:13.896Z,15.10
2023-02-25T20:56:41.157Z,16.00
2023-02-25T20:59:09.799Z,17.47
2023-02-25T21:01:36.366Z,14.03
2023-02-25T21:04:03.711Z,17.37
2023-02-25T21:06:30.466Z,18.93
2023-02-25T21:08:57.060Z,17.83
2023-02-25T21:11:24.398Z,18.60
2023-02-25T21:13:51.907Z,16.40
2023-02-25T21:16:19.938Z,16.50
2023-02-25T21:18:47.151Z,13.03
2023-02-25T21:21:16.005Z,18.03
2023-02-25T21:23:43.236Z,12.23
2023-02-25T21:26:11.016Z,19.37
2023-02-25T21:28:38.670Z,18.67
2023-02-25T21:31:10.810Z,20.17
2023-02-25T21:33:38.647Z,10.97
2023-02-25T21:36:06.643Z,22.40
2023-02-25T21:38:33.348Z,14.13
2023-02-25T21:41:08.676Z,15.77
2023-02-25T21:43:35.744Z,19.37
2023-02-25T21:46:05.365Z,19.17
2023-02-25T21:48:32.406Z,20.87
2023-02-25T21:50:59.625Z,15.47
2023-02-25T21:53:27.607Z,15.63
2023-02-25T21:55:55.517Z,19.27
2023-02-25T21:58:22.853Z,17.87
2023-02-25T22:00:50.180Z,17.57
2023-02-25T22:03:17.148Z,13.43
2023-02-25T22:05:46.144Z,13.73
2023-02-25T22:08:14.183Z,13.53
2023-02-25T22:10:41.013Z,19.57
2023-02-25T22:13:08.570Z,14.54
2023-02-25T22:15:35.504Z,13.40
2023-02-25T22:18:02.255Z,15.17
2023-02-25T22:20:28.905Z,13.83
2023-02-25T22:22:58.088Z,12.73
2023-02-25T22:25:26.107Z,16.77
2023-02-25T22:27:52.770Z,14.97
2023-02-25T22:30:19.888Z,13.90
2023-02-25T22:32:46.608Z,13.30
2023-02-25T22:35:13.335Z,16.40
2023-02-25T22:37:39.980Z,17.30
2023-02-25T22:40:07.126Z,13.20
2023-02-25T22:42:33.776Z,14.00
2023-02-25T22:45:01.256Z,15.07
2023-02-25T22:47:27.924Z,14.43
2023-02-25T22:49:54.572Z,15.90
2023-02-25T22:52:21.200Z,15.07
2023-02-25T22:54:47.861Z,17.97
2023-02-25T22:57:14.509Z,12.57
2023-02-25T22:59:41.205Z,11.37
2023-02-25T23:02:07.894Z,19.23
2023-02-25T23:04:34.517Z,17.10
2023-02-25T23:07:01.975Z,13.70
2023-02-25T23:09:28.621Z,13.73
2023-02-25T23:11:55.342Z,17.63
2023-02-25T23:14:21.951Z,11.97
2023-02-25T23:16:48.596Z,16.43
2023-02-25T23:19:17.597Z,12.97
2023-02-25T23:21:44.710Z,15.87
2023-02-25T23:24:18.538Z,16.43
2023-02-25T23:26:47.493Z,12.63
2023-02-25T23:29:14.197Z,15.40
2023-02-25T23:31:45.841Z,15.53
2023-02-25T23:34:15.452Z,11.27
2023-02-25T23:36:44.937Z,13.90
2023-02-25T23:39:12.910Z,17.30
2023-02-25T23:41:39.692Z,13.73
2023-02-25T23:44:08.408Z,19.83
2023-02-25T23:46:35.801Z,11.97
2023-02-25T23:49:05.711Z,14.77
2023-02-25T23:51:32.803Z,13.67
2023-02-25T23:54:01.880Z,13.40
2023-02-25T23:56:30.913Z,14.87
2023-02-25T23:58:58.077Z,13.27
